Flight Track Log - Related Links

Times and Time Zones

All times are in EDT time to prevent confusion due to time zone crossing. See the CHQ5046 flight status page for this flight to view local times or setup timezone preferences in your user account.

Time Position Orientation Groundspeed Altitude Reporting Facility
EDT Latitude Longitude Course Direction KTS MPH feet Rate Location/Type
Wed 06:56:43 PM 42.0000 -87.9333 77° East 164 189 1,800  Level Chicago TRACON
Wed 06:57:43 PM 42.0500 -87.9000 26° Northeast 214 246 3,800 1,682 Climbing Chicago TRACON
Wed 06:58:30 PM 42.0800 -87.8697 37° Northeast 216 249 4,800 1,872 Climbing Chicago Center
Wed 06:59:00 PM 42.0409 -87.4761 84° East  Level FlightAware Approximate
Wed 06:59:32 PM 42.1389 -87.8058 39° Northeast 265 305 7,200  Level Chicago Center
Wed 07:00:00 PM 42.0562 -87.3268 78° East  Level FlightAware Approximate
Wed 07:00:34 PM 42.1508 -87.7047 81° East 289 333 9,500  Level Chicago Center
Wed 07:01:00 PM 42.0789 -87.1790 78° East  Level FlightAware Approximate
Wed 07:01:36 PM 42.1428 -87.5744 95° East 294 338 11,700  Level Chicago Center
Wed 07:02:00 PM 42.0943 -87.0840 77° East  Level FlightAware Approximate
Wed 07:02:38 PM 42.1378 -87.4519 93° East 321 369 12,900  Level Chicago Center
Wed 07:03:40 PM 42.1461 -87.3169 85° East 360 414 12,900  Level Chicago Center
Wed 07:04:42 PM 42.1542 -87.1742 86° East 379 436 12,900 48 Level Chicago Center
Wed 07:05:44 PM 42.1628 -87.0286 85° East 390 449 13,000 48 Climbing Chicago Center
Wed 07:06:47 PM 42.1694 -86.8817 86° East 393 452 13,000  Level Chicago Center
Wed 07:07:49 PM 42.1803 -86.7044 85° East 397 457 13,000 -484 Level Chicago Center
Wed 07:08:51 PM 42.1867 -86.5753 86° East 398 458 12,000 -968 Descending Chicago Center
Wed 07:09:53 PM 42.1947 -86.4036 86° East 385 443 11,000 -484 Descending Chicago Center
Wed 07:10:55 PM 42.2019 -86.2639 86° East 376 433 11,000 -48 Level Chicago Center
Wed 07:11:57 PM 42.2053 -86.1219 88° East 378 435 10,900 -435 Descending Chicago Center
Wed 07:12:59 PM 42.1933 -85.9989 97° East 337 388 10,100 -1,306 Descending Chicago Center
Wed 07:14:01 PM 42.1567 -85.9072 118° Southeast 295 339 8,200 -1,839 Descending Chicago Center
Wed 07:15:03 PM 42.1103 -85.8192 125° Southeast 289 333 6,300 -1,984 Descending Chicago Center
Wed 07:16:05 PM 42.0836 -85.7067 108° East 281 323 4,100 -1,440 Descending Chicago Center
Wed 07:17:08 PM 42.0881 -85.6094 86° East 270 311 3,300 -762 Descending Chicago Center

Login

Don't have an account? Register now (free) for customized features, flight alerts, and more!